Time;durP1;ratioP1;P1;durP2;ratioP2;P2;SDS_P1;SDS_P2;PMS_P1;PMS_P2;Temp;Humidity;BMP_temperature;BMP_pressure;BME280_temperature;BME280_humidity;BME280_pressure;Samples;Min_cycle;Max_cycle;Signal;HPM_P1;HPM_P2
2023/03/12 00:00:39;;;;;;;13.65;5.28;;;-0.60;99.90;;;;;;5076921;28;20036;-63
2023/03/12 00:03:05;;;;;;;10.45;4.68;;;-0.60;99.90;;;;;;5075988;28;20040;-63
2023/03/12 00:05:30;;;;;;;15.63;4.10;;;-0.50;99.90;;;;;;5076730;28;20065;-63
2023/03/12 00:07:58;;;;;;;11.18;5.20;;;-0.50;99.90;;;;;;5076961;28;20036;-66
2023/03/12 00:10:27;;;;;;;13.50;5.15;;;-0.50;99.90;;;;;;5077120;28;20047;-62
2023/03/12 00:12:53;;;;;;;17.15;5.65;;;-0.50;99.90;;;;;;5063768;28;20101;-64
2023/03/12 00:15:19;;;;;;;9.32;4.63;;;-0.50;99.90;;;;;;5074909;28;20036;-63
2023/03/12 00:17:44;;;;;;;15.23;5.18;;;-0.50;99.90;;;;;;5075918;28;20039;-63
2023/03/12 00:20:11;;;;;;;16.27;6.05;;;-0.50;99.90;;;;;;5077048;28;20043;-63
2023/03/12 00:22:37;;;;;;;15.50;5.40;;;-0.50;99.90;;;;;;5074841;28;20047;-63
2023/03/12 00:25:04;;;;;;;14.57;5.70;;;-0.50;99.90;;;;;;5073755;28;20039;-63
2023/03/12 00:27:29;;;;;;;15.10;6.38;;;-0.50;99.90;;;;;;5074973;28;20060;-63
2023/03/12 00:29:55;;;;;;;13.25;5.50;;;-0.60;99.90;;;;;;5056022;28;20182;-63
2023/03/12 00:32:21;;;;;;;15.38;6.10;;;-0.60;99.90;;;;;;5077055;28;20054;-63
2023/03/12 00:34:54;;;;;;;14.32;5.63;;;-0.60;99.90;;;;;;5077877;28;20044;-63
2023/03/12 00:37:21;;;;;;;16.90;6.18;;;-0.70;99.90;;;;;;5078348;28;20669;-63
2023/03/12 00:39:47;;;;;;;15.35;6.22;;;-0.70;99.90;;;;;;5075092;28;20036;-63
2023/03/12 00:42:12;;;;;;;12.95;5.47;;;-0.80;99.90;;;;;;5075872;28;20040;-63
2023/03/12 00:44:38;;;;;;;15.48;6.47;;;-0.80;99.90;;;;;;5077109;28;20044;-63
2023/03/12 00:47:04;;;;;;;14.13;6.03;;;-0.80;99.90;;;;;;5073136;28;20044;-63
2023/03/12 00:49:29;;;;;;;14.00;5.93;;;-0.90;99.90;;;;;;5077133;28;20533;-63
2023/03/12 00:51:55;;;;;;;12.55;6.15;;;-0.90;99.90;;;;;;5078450;28;20149;-63
2023/03/12 00:54:21;;;;;;;13.60;6.40;;;-1.00;99.90;;;;;;5079887;28;20032;-62
2023/03/12 00:56:46;;;;;;;13.43;6.25;;;-1.00;99.90;;;;;;5059169;28;20075;-63
2023/03/12 00:59:14;;;;;;;16.63;7.43;;;-1.10;99.90;;;;;;5073213;28;20590;-62
2023/03/12 01:01:39;;;;;;;23.55;9.60;;;-1.20;99.90;;;;;;5077555;28;20044;-62
2023/03/12 01:04:05;;;;;;;19.05;9.07;;;-1.20;99.90;;;;;;5076687;28;20041;-63
2023/03/12 01:06:31;;;;;;;16.15;7.55;;;-1.30;99.90;;;;;;5076653;28;20163;-63
2023/03/12 01:08:56;;;;;;;14.38;7.57;;;-1.30;99.90;;;;;;5072941;28;20127;-62
2023/03/12 01:11:22;;;;;;;17.85;8.07;;;-1.30;99.90;;;;;;5059983;28;20036;-62
2023/03/12 01:13:47;;;;;;;20.60;9.88;;;-1.40;99.90;;;;;;5076764;28;20043;-62
2023/03/12 01:16:13;;;;;;;19.67;9.23;;;-1.40;99.90;;;;;;5077035;28;20664;-62
2023/03/12 01:18:39;;;;;;;22.13;8.85;;;-1.50;99.90;;;;;;5076886;28;20040;-62
2023/03/12 01:21:05;;;;;;;18.58;8.65;;;-1.50;99.90;;;;;;5078262;28;20135;-62
2023/03/12 01:23:31;;;;;;;16.08;7.78;;;-1.50;99.90;;;;;;5077076;28;20074;-62
2023/03/12 01:25:58;;;;;;;16.08;7.60;;;-1.50;99.90;;;;;;5074941;28;20095;-62
2023/03/12 01:28:24;;;;;;;15.20;7.10;;;-1.50;99.90;;;;;;5057697;28;20131;-62
2023/03/12 01:30:50;;;;;;;15.02;7.07;;;-1.60;99.90;;;;;;5073421;28;20127;-62
2023/03/12 01:33:15;;;;;;;15.50;7.03;;;-1.60;99.90;;;;;;5074622;28;20198;-62
2023/03/12 01:35:41;;;;;;;16.63;7.10;;;-1.60;99.90;;;;;;5074673;28;20066;-62
2023/03/12 01:38:12;;;;;;;15.50;7.63;;;-1.60;99.90;;;;;;5075794;28;20549;-62
2023/03/12 01:40:38;;;;;;;17.33;7.35;;;-1.60;99.90;;;;;;5073598;28;20038;-62
2023/03/12 01:43:30;;;;;;;14.77;6.63;;;-1.60;99.90;;;;;;5074996;28;20044;-62
2023/03/12 01:46:07;;;;;;;26.75;9.82;;;-1.60;99.90;;;;;;5057337;28;20055;-62
2023/03/12 01:48:38;;;;;;;21.90;8.00;;;-1.60;99.90;;;;;;5071544;28;20048;-62
2023/03/12 01:51:04;;;;;;;21.38;9.60;;;-1.60;99.90;;;;;;5072039;28;20055;-62
2023/03/12 01:53:31;;;;;;;17.17;8.07;;;-1.70;99.90;;;;;;5074998;28;20066;-62
2023/03/12 01:55:59;;;;;;;17.35;7.50;;;-1.60;99.90;;;;;;5077317;28;20055;-62
2023/03/12 01:58:27;;;;;;;15.77;6.40;;;-1.70;99.90;;;;;;5073422;28;20052;-61
2023/03/12 02:00:54;;;;;;;12.57;6.63;;;-1.60;99.90;;;;;;5075899;28;20505;-61
2023/03/12 02:03:19;;;;;;;16.55;6.93;;;-1.60;99.90;;;;;;5075029;28;20737;-62
2023/03/12 02:05:51;;;;;;;18.17;7.63;;;-1.60;99.90;;;;;;5075245;28;20032;-61
2023/03/12 02:08:17;;;;;;;18.42;7.07;;;-1.60;99.90;;;;;;5073807;28;20082;-62
2023/03/12 02:10:44;;;;;;;16.92;5.97;;;-1.50;99.90;;;;;;5075577;28;20040;-62
2023/03/12 02:13:10;;;;;;;14.68;6.28;;;-1.50;99.90;;;;;;5075111;28;20040;-62
2023/03/12 02:15:37;;;;;;;19.23;6.20;;;-1.50;99.90;;;;;;5072534;28;20045;-61
2023/03/12 02:18:03;;;;;;;13.23;6.30;;;-1.40;99.90;;;;;;5076132;28;20115;-61
2023/03/12 02:21:03;;;;;;;12.48;5.82;;;-1.30;99.90;;;;;;5076336;28;20031;-62
2023/03/12 02:23:52;;;;;;;14.73;6.03;;;-1.30;99.90;;;;;;5073284;28;20099;-61
2023/03/12 02:26:20;;;;;;;13.10;6.20;;;-1.20;99.90;;;;;;5078998;28;20120;-62
2023/03/12 02:28:48;;;;;;;14.80;6.13;;;-1.20;99.90;;;;;;5074529;28;20036;-62
2023/03/12 02:31:19;;;;;;;13.63;6.00;;;-1.10;99.90;;;;;;5078517;28;20403;-62
2023/03/12 02:33:44;;;;;;;15.05;5.75;;;-1.00;99.90;;;;;;5074218;28;20048;-61
2023/03/12 02:36:10;;;;;;;13.57;6.15;;;-1.00;99.90;;;;;;5073245;28;20024;-61
2023/03/12 02:38:46;;;;;;;11.70;5.55;;;-0.90;99.90;;;;;;5074448;28;20060;-61
2023/03/12 02:41:36;;;;;;;15.73;5.68;;;-0.90;99.90;;;;;;5075188;28;21352;-61
2023/03/12 02:44:04;;;;;;;12.43;5.68;;;-0.90;99.90;;;;;;5077019;28;20050;-62
2023/03/12 02:46:34;;;;;;;18.15;5.93;;;-0.90;99.90;;;;;;5076163;28;20051;-62
2023/03/12 02:49:00;;;;;;;11.98;5.57;;;-0.90;99.90;;;;;;5074512;28;20040;-62
2023/03/12 02:51:26;;;;;;;11.43;5.65;;;-0.80;99.90;;;;;;5057243;28;20046;-62
2023/03/12 02:53:53;;;;;;;14.45;5.30;;;-0.80;99.90;;;;;;5076059;28;20487;-62
2023/03/12 02:56:24;;;;;;;15.63;5.10;;;-0.80;99.90;;;;;;5077218;28;20410;-61
2023/03/12 02:58:50;;;;;;;10.40;4.95;;;-0.70;99.90;;;;;;5072553;28;20040;-62
2023/03/12 03:01:16;;;;;;;12.02;5.20;;;-0.70;99.90;;;;;;5054486;28;20048;-61
2023/03/12 03:03:42;;;;;;;12.75;4.68;;;-0.60;99.90;;;;;;5074566;28;20047;-62
2023/03/12 03:06:08;;;;;;;11.30;4.40;;;-0.60;99.90;;;;;;5078651;28;20043;-62
2023/03/12 03:08:34;;;;;;;9.07;4.53;;;-0.60;99.90;;;;;;5076506;28;20028;-62
2023/03/12 03:11:01;;;;;;;10.15;4.45;;;-0.60;99.90;;;;;;5072304;28;20047;-62
2023/03/12 03:13:30;;;;;;;10.55;4.00;;;-0.60;99.90;;;;;;5071846;28;20040;-62
2023/03/12 03:15:58;;;;;;;9.80;4.47;;;-0.60;99.90;;;;;;5076595;28;20043;-62
2023/03/12 03:18:24;;;;;;;8.98;4.13;;;-0.60;99.90;;;;;;5075363;28;20524;-61
2023/03/12 03:21:02;;;;;;;13.38;5.32;;;-0.60;99.90;;;;;;5075760;28;20476;-62
2023/03/12 03:23:28;;;;;;;10.77;4.82;;;-0.60;99.90;;;;;;5073864;28;20063;-61
2023/03/12 03:25:54;;;;;;;15.10;4.40;;;-0.60;99.90;;;;;;5077915;28;20044;-62
2023/03/12 03:28:22;;;;;;;13.32;5.05;;;-0.50;99.90;;;;;;5074982;28;20040;-61
2023/03/12 03:30:48;;;;;;;12.77;5.70;;;-0.60;99.90;;;;;;5073028;28;20032;-62
2023/03/12 03:33:13;;;;;;;12.23;4.35;;;-0.50;99.90;;;;;;5072058;28;20047;-62
2023/03/12 03:35:39;;;;;;;13.57;5.20;;;-0.50;99.90;;;;;;5076163;28;20119;-62
2023/03/12 03:38:06;;;;;;;11.68;5.05;;;-0.50;99.90;;;;;;5073999;28;20138;-62
2023/03/12 03:40:32;;;;;;;15.02;5.03;;;-0.50;99.90;;;;;;5082389;28;20441;-62
2023/03/12 03:42:57;;;;;;;14.65;5.10;;;-0.50;99.90;;;;;;5079531;28;20031;-62
2023/03/12 03:45:23;;;;;;;12.93;4.72;;;-0.50;99.90;;;;;;5079031;28;20046;-62
2023/03/12 03:47:49;;;;;;;12.02;5.18;;;-0.40;99.90;;;;;;5077987;28;20036;-62
2023/03/12 03:50:14;;;;;;;12.95;5.50;;;-0.40;99.90;;;;;;5076868;28;20032;-62
2023/03/12 03:52:40;;;;;;;12.68;4.60;;;-0.40;99.90;;;;;;5075560;28;20020;-62
2023/03/12 03:55:06;;;;;;;14.68;4.78;;;-0.40;99.90;;;;;;5076407;28;20537;-61
2023/03/12 03:57:31;;;;;;;13.77;4.70;;;-0.40;99.90;;;;;;5076695;28;20105;-62
2023/03/12 03:59:57;;;;;;;14.05;5.00;;;-0.30;99.90;;;;;;5075880;28;20043;-62
2023/03/12 04:02:24;;;;;;;11.38;4.60;;;-0.30;99.90;;;;;;5075111;28;20062;-62
2023/03/12 04:04:50;;;;;;;13.50;5.35;;;-0.30;99.90;;;;;;5079562;28;20086;-62
2023/03/12 04:07:16;;;;;;;12.77;4.90;;;-0.30;99.90;;;;;;5077895;28;20075;-62
2023/03/12 04:09:42;;;;;;;11.60;5.35;;;-0.20;99.90;;;;;;5077320;28;20047;-62
2023/03/12 04:12:08;;;;;;;11.93;4.50;;;-0.20;99.90;;;;;;5077667;28;20039;-62
2023/03/12 04:14:33;;;;;;;12.77;4.97;;;-0.20;99.90;;;;;;5079238;28;20502;-62
2023/03/12 04:16:59;;;;;;;14.80;5.03;;;-0.20;99.90;;;;;;5075051;28;20036;-62
2023/03/12 04:19:25;;;;;;;11.30;5.25;;;-0.20;99.90;;;;;;5075103;28;20578;-62
2023/03/12 04:21:50;;;;;;;11.98;5.45;;;-0.20;99.90;;;;;;5074313;28;20063;-62
2023/03/12 04:24:17;;;;;;;11.70;5.13;;;-0.20;99.90;;;;;;5074691;28;20044;-62
2023/03/12 04:26:43;;;;;;;13.48;5.28;;;-0.20;99.90;;;;;;5073738;28;20051;-62
2023/03/12 04:29:08;;;;;;;14.15;5.22;;;-0.20;99.90;;;;;;5078330;28;20040;-62
2023/03/12 04:31:34;;;;;;;12.80;4.90;;;-0.20;99.90;;;;;;5073339;28;20044;-62
2023/03/12 04:33:59;;;;;;;11.32;6.00;;;-0.20;99.90;;;;;;5057451;28;20048;-62
2023/03/12 04:36:25;;;;;;;12.52;5.10;;;-0.20;99.90;;;;;;5078040;28;20071;-62
2023/03/12 04:38:50;;;;;;;13.23;5.30;;;-0.20;99.90;;;;;;5075883;28;20037;-62
2023/03/12 04:41:16;;;;;;;12.23;5.05;;;-0.20;99.90;;;;;;5076960;28;20036;-62
2023/03/12 04:43:42;;;;;;;11.95;5.70;;;-0.20;99.90;;;;;;5077975;28;20032;-62
2023/03/12 04:46:08;;;;;;;10.20;4.97;;;-0.20;99.90;;;;;;5076059;28;20037;-62
2023/03/12 04:48:34;;;;;;;11.00;4.53;;;-0.20;99.90;;;;;;5076404;28;20044;-62
2023/03/12 04:51:00;;;;;;;11.52;5.40;;;-0.20;99.90;;;;;;5076732;28;20059;-62
2023/03/12 04:53:25;;;;;;;10.88;5.00;;;-0.20;99.90;;;;;;5061046;28;20040;-61
2023/03/12 04:55:51;;;;;;;13.90;5.35;;;-0.20;99.90;;;;;;5077330;28;20036;-62
2023/03/12 04:58:17;;;;;;;12.57;5.05;;;-0.20;99.90;;;;;;5076077;28;20143;-62
2023/03/12 05:00:43;;;;;;;9.93;5.15;;;-0.20;99.90;;;;;;5077304;28;20490;-62
2023/03/12 05:03:09;;;;;;;10.98;5.00;;;-0.20;99.90;;;;;;5075812;28;20035;-62
2023/03/12 05:05:34;;;;;;;15.88;5.35;;;-0.10;99.90;;;;;;5074394;28;20048;-62
2023/03/12 05:08:01;;;;;;;11.93;5.53;;;-0.10;99.90;;;;;;5076683;28;20042;-62
2023/03/12 05:10:27;;;;;;;12.18;5.55;;;-0.10;99.90;;;;;;5072452;28;20036;-62
2023/03/12 05:12:52;;;;;;;11.50;4.85;;;-0.10;99.90;;;;;;5073541;28;20688;-62
2023/03/12 05:15:18;;;;;;;10.50;5.32;;;-0.10;99.90;;;;;;5075305;28;20048;-62
2023/03/12 05:17:44;;;;;;;14.80;5.25;;;-0.10;99.90;;;;;;5073845;28;20067;-62
2023/03/12 05:20:10;;;;;;;15.18;5.03;;;-0.10;99.90;;;;;;5075493;28;20060;-62
2023/03/12 05:22:36;;;;;;;9.32;4.95;;;0.00;99.90;;;;;;5073699;28;20133;-62
2023/03/12 05:25:03;;;;;;;15.63;5.75;;;0.00;99.90;;;;;;5075314;28;20044;-62
2023/03/12 05:27:29;;;;;;;11.13;5.68;;;0.00;99.90;;;;;;5077661;28;20048;-62
2023/03/12 05:29:54;;;;;;;14.55;5.80;;;0.00;99.90;;;;;;5073260;28;20714;-62
2023/03/12 05:32:20;;;;;;;18.27;5.80;;;0.00;99.90;;;;;;5076655;28;20040;-62
2023/03/12 05:34:45;;;;;;;13.52;6.22;;;0.00;99.90;;;;;;5076999;28;20082;-62
2023/03/12 05:37:11;;;;;;;10.85;5.80;;;0.00;99.90;;;;;;5075365;28;20043;-62
2023/03/12 05:39:37;;;;;;;13.95;6.32;;;0.00;99.90;;;;;;5076411;28;20044;-62
2023/03/12 05:42:03;;;;;;;12.65;6.70;;;0.00;99.90;;;;;;5073948;28;20689;-62
2023/03/12 05:44:29;;;;;;;13.27;6.10;;;0.00;99.90;;;;;;5076810;28;20043;-62
2023/03/12 05:46:54;;;;;;;11.25;6.18;;;0.00;99.90;;;;;;5076139;28;20044;-62
2023/03/12 05:49:21;;;;;;;14.82;6.38;;;0.00;99.90;;;;;;5074988;28;20036;-62
2023/03/12 05:51:47;;;;;;;11.27;6.05;;;0.00;99.90;;;;;;5077113;28;20835;-62
2023/03/12 05:54:14;;;;;;;14.88;6.72;;;0.00;99.90;;;;;;5073628;28;20036;-62
2023/03/12 05:56:40;;;;;;;13.32;6.22;;;0.00;99.90;;;;;;5074712;28;20043;-62
2023/03/12 05:59:06;;;;;;;18.92;6.68;;;0.00;99.90;;;;;;5074617;28;20499;-62
2023/03/12 06:01:32;;;;;;;14.10;6.63;;;0.00;99.90;;;;;;5072154;28;20041;-62
2023/03/12 06:03:58;;;;;;;17.10;6.97;;;0.00;99.90;;;;;;5072984;28;20758;-62
2023/03/12 06:06:24;;;;;;;16.42;6.43;;;0.10;99.90;;;;;;5074287;28;20071;-63
2023/03/12 06:08:50;;;;;;;18.42;7.70;;;0.00;99.90;;;;;;5072980;28;20143;-62
2023/03/12 06:11:16;;;;;;;14.88;6.72;;;0.10;99.90;;;;;;5074164;28;20048;-62
2023/03/12 06:13:42;;;;;;;14.40;7.78;;;0.10;99.90;;;;;;5075730;28;20060;-62
2023/03/12 06:16:20;;;;;;;16.17;7.03;;;0.10;99.90;;;;;;5074560;28;20119;-62
2023/03/12 06:18:46;;;;;;;12.77;7.25;;;0.10;99.90;;;;;;5076087;28;20117;-62
2023/03/12 06:21:14;;;;;;;14.73;7.43;;;0.20;99.90;;;;;;5076513;28;20054;-62
2023/03/12 06:23:41;;;;;;;15.85;7.60;;;0.20;99.90;;;;;;5073777;28;20043;-62
2023/03/12 06:26:10;;;;;;;18.33;7.78;;;0.20;99.90;;;;;;5074648;28;20051;-62
2023/03/12 06:28:36;;;;;;;20.05;8.10;;;0.20;99.90;;;;;;5073856;28;20036;-62
2023/03/12 06:31:02;;;;;;;19.75;8.70;;;0.20;99.90;;;;;;5072143;28;20028;-62
2023/03/12 06:33:28;;;;;;;13.05;7.57;;;0.20;99.90;;;;;;5073393;28;20043;-62
2023/03/12 06:35:55;;;;;;;21.92;8.95;;;0.20;99.90;;;;;;5075100;28;20574;-61
2023/03/12 06:38:21;;;;;;;20.75;8.80;;;0.30;99.90;;;;;;5074156;28;20482;-62
2023/03/12 06:41:14;;;;;;;23.15;10.00;;;0.30;99.90;;;;;;5073166;28;20037;-61
2023/03/12 06:43:40;;;;;;;21.55;9.73;;;0.30;99.90;;;;;;5072223;28;20059;-62
2023/03/12 06:46:08;;;;;;;17.23;10.27;;;0.30;99.90;;;;;;5077681;28;20052;-62
2023/03/12 06:48:35;;;;;;;18.40;10.38;;;0.30;99.90;;;;;;5074750;28;20044;-62
2023/03/12 06:51:04;;;;;;;16.92;8.85;;;0.30;99.90;;;;;;5077458;28;20043;-62
2023/03/12 06:53:31;;;;;;;19.55;10.50;;;0.30;99.90;;;;;;5075098;28;20040;-62
2023/03/12 06:55:57;;;;;;;19.15;10.43;;;0.30;99.90;;;;;;5073186;28;20710;-62
2023/03/12 06:58:23;;;;;;;22.30;10.40;;;0.40;99.90;;;;;;5074062;28;20044;-62
2023/03/12 07:00:49;;;;;;;20.45;10.13;;;0.40;99.90;;;;;;5076793;28;20028;-62
2023/03/12 07:03:14;;;;;;;19.25;10.07;;;0.40;99.90;;;;;;5074841;28;20028;-62
2023/03/12 07:05:43;;;;;;;24.40;10.85;;;0.40;99.90;;;;;;5074325;28;20045;-62
2023/03/12 07:08:09;;;;;;;21.10;10.40;;;0.40;99.90;;;;;;5075872;28;20616;-62
2023/03/12 07:10:35;;;;;;;20.98;10.50;;;0.50;99.90;;;;;;5071427;28;20039;-62
2023/03/12 07:13:01;;;;;;;19.63;10.38;;;0.50;99.90;;;;;;5075730;28;20043;-62
2023/03/12 07:15:27;;;;;;;19.50;9.88;;;0.50;99.90;;;;;;5078707;28;20039;-62
2023/03/12 07:17:52;;;;;;;21.45;11.20;;;0.60;99.90;;;;;;5077756;28;20043;-62
2023/03/12 07:20:18;;;;;;;18.48;10.32;;;0.60;99.90;;;;;;5079104;28;20051;-62
2023/03/12 07:22:44;;;;;;;20.60;10.45;;;0.60;99.90;;;;;;5076757;28;20032;-62
2023/03/12 07:25:10;;;;;;;23.73;10.93;;;0.60;99.90;;;;;;5077671;28;20131;-62
2023/03/12 07:27:36;;;;;;;29.83;13.35;;;0.70;99.90;;;;;;5080898;28;20589;-62
2023/03/12 07:30:02;;;;;;;26.27;11.55;;;0.70;99.90;;;;;;5073794;28;20041;-62
2023/03/12 07:32:28;;;;;;;20.85;9.23;;;0.70;99.90;;;;;;5077909;28;20047;-62
2023/03/12 07:34:53;;;;;;;18.30;8.20;;;0.80;99.90;;;;;;5075796;28;20032;-60
2023/03/12 07:37:19;;;;;;;20.73;8.75;;;0.80;99.90;;;;;;5075069;28;20071;-61
2023/03/12 07:39:46;;;;;;;15.68;8.23;;;0.90;99.90;;;;;;5077595;28;20041;-61
2023/03/12 07:42:12;;;;;;;18.13;9.00;;;0.90;99.90;;;;;;5079194;28;20185;-61
2023/03/12 07:44:38;;;;;;;18.73;9.38;;;0.90;99.90;;;;;;5078228;28;20044;-61
2023/03/12 07:47:03;;;;;;;20.73;9.80;;;0.90;99.90;;;;;;5080070;28;20569;-62
2023/03/12 07:49:29;;;;;;;25.25;9.45;;;0.90;99.90;;;;;;5078322;28;20614;-62
2023/03/12 07:51:54;;;;;;;21.33;9.75;;;0.90;99.90;;;;;;5079515;28;20032;-62
2023/03/12 07:54:24;;;;;;;19.25;10.20;;;0.80;99.90;;;;;;5079881;28;20028;-62
2023/03/12 07:56:49;;;;;;;23.05;11.32;;;0.80;99.90;;;;;;5079722;28;20056;-62
2023/03/12 07:59:15;;;;;;;25.05;11.70;;;0.80;99.90;;;;;;5075817;28;20036;-62
2023/03/12 08:01:41;;;;;;;21.38;11.80;;;0.80;99.90;;;;;;5077604;28;20048;-63
2023/03/12 08:04:06;;;;;;;25.15;13.07;;;0.80;99.90;;;;;;5076401;28;20044;-63
2023/03/12 08:06:32;;;;;;;26.05;12.95;;;0.80;99.90;;;;;;5076552;28;20050;-61
2023/03/12 08:08:57;;;;;;;30.38;14.57;;;0.70;99.90;;;;;;5077773;28;20108;-61
2023/03/12 08:11:23;;;;;;;31.33;14.18;;;0.80;99.90;;;;;;5078750;28;20036;-61
2023/03/12 08:13:49;;;;;;;30.67;15.25;;;0.80;99.90;;;;;;5076446;28;20044;-61
2023/03/12 08:16:14;;;;;;;25.65;14.65;;;0.80;99.90;;;;;;5077602;28;20047;-62
2023/03/12 08:18:41;;;;;;;30.38;15.82;;;0.80;99.90;;;;;;5079418;28;20028;-61
2023/03/12 08:21:07;;;;;;;31.85;18.90;;;0.80;99.90;;;;;;5077017;28;20119;-61
2023/03/12 08:23:33;;;;;;;28.55;14.77;;;0.80;99.90;;;;;;5078709;28;20784;-60
2023/03/12 08:25:58;;;;;;;24.10;13.63;;;0.70;99.90;;;;;;5077303;28;20671;-61
2023/03/12 08:28:24;;;;;;;22.95;13.13;;;0.70;99.90;;;;;;5077879;28;20024;-60
2023/03/12 08:30:57;;;;;;;24.42;14.43;;;0.70;99.90;;;;;;5076433;28;20067;-60
2023/03/12 08:33:22;;;;;;;26.73;13.73;;;0.70;99.90;;;;;;5075123;28;20121;-59
2023/03/12 08:35:48;;;;;;;30.98;14.70;;;0.70;99.90;;;;;;5076766;28;20415;-61
2023/03/12 08:38:14;;;;;;;28.20;14.70;;;0.70;99.90;;;;;;5072897;28;20115;-61
2023/03/12 08:40:40;;;;;;;29.95;14.27;;;0.70;99.90;;;;;;5077674;28;20032;-59
2023/03/12 08:43:06;;;;;;;25.75;14.55;;;0.70;99.90;;;;;;5075221;28;20050;-62
2023/03/12 08:45:34;;;;;;;29.40;15.25;;;0.70;99.90;;;;;;5078228;28;20040;-61
2023/03/12 08:48:01;;;;;;;24.30;15.02;;;0.80;99.90;;;;;;5077046;28;20052;-61
2023/03/12 08:50:28;;;;;;;23.83;14.05;;;0.80;99.90;;;;;;5077562;28;20082;-60
2023/03/12 08:52:54;;;;;;;29.00;14.93;;;0.80;99.90;;;;;;5075582;28;20040;-61
2023/03/12 08:55:20;;;;;;;22.80;14.25;;;0.90;99.90;;;;;;5077077;28;20083;-61
2023/03/12 08:57:46;;;;;;;23.98;14.55;;;0.90;99.90;;;;;;5077464;28;20075;-61
2023/03/12 09:00:14;;;;;;;25.67;14.23;;;0.90;99.90;;;;;;5077153;28;20032;-62
2023/03/12 09:02:41;;;;;;;27.75;14.35;;;0.90;99.90;;;;;;5073471;28;20535;-61
2023/03/12 09:05:07;;;;;;;26.98;14.30;;;0.90;99.90;;;;;;5076958;28;20058;-61
2023/03/12 09:07:32;;;;;;;25.45;13.50;;;0.90;99.90;;;;;;5076895;28;20036;-62
2023/03/12 09:09:58;;;;;;;25.77;13.27;;;0.90;99.90;;;;;;5074699;28;20521;-63
2023/03/12 09:12:24;;;;;;;25.02;15.00;;;0.90;99.90;;;;;;5074705;28;20151;-62
2023/03/12 09:14:50;;;;;;;26.05;13.68;;;1.00;99.90;;;;;;5076231;28;20211;-62
2023/03/12 09:17:16;;;;;;;27.33;13.77;;;1.00;99.90;;;;;;5074315;28;20595;-63
2023/03/12 09:19:41;;;;;;;23.17;13.75;;;1.00;99.90;;;;;;5075341;28;20024;-62
2023/03/12 09:22:07;;;;;;;30.58;15.60;;;1.00;99.90;;;;;;5075919;28;20036;-63
2023/03/12 09:24:33;;;;;;;22.55;14.05;;;1.00;99.90;;;;;;5078530;28;20043;-62
2023/03/12 09:26:58;;;;;;;27.65;14.10;;;1.10;99.90;;;;;;5077215;28;20048;-61
2023/03/12 09:29:24;;;;;;;27.20;14.80;;;1.00;99.90;;;;;;5079302;28;20035;-62
2023/03/12 09:31:50;;;;;;;28.63;15.70;;;1.00;99.90;;;;;;5079986;28;20628;-61
2023/03/12 09:34:16;;;;;;;28.73;15.85;;;1.00;99.90;;;;;;5078587;28;20040;-61
2023/03/12 09:36:42;;;;;;;29.83;14.48;;;1.00;99.90;;;;;;5076148;28;20036;-60
2023/03/12 09:39:08;;;;;;;30.90;15.38;;;1.00;99.90;;;;;;5075941;28;20755;-60
2023/03/12 09:41:38;;;;;;;25.38;14.65;;;0.90;99.90;;;;;;5076566;28;20091;-61
2023/03/12 09:44:16;;;;;;;25.98;15.75;;;0.90;99.90;;;;;;5073190;28;20051;-61
2023/03/12 09:46:50;;;;;;;28.60;16.00;;;0.90;99.90;;;;;;5076876;28;20638;-60
2023/03/12 09:49:47;;;;;;;30.90;16.95;;;0.90;99.90;;;;;;5077776;28;20048;-61
2023/03/12 09:52:32;;;;;;;31.73;17.42;;;0.90;99.90;;;;;;5077006;28;20097;-61
2023/03/12 09:55:05;;;;;;;31.52;17.38;;;0.90;99.90;;;;;;5077908;28;20050;-61
2023/03/12 09:57:32;;;;;;;33.42;17.58;;;0.90;99.90;;;;;;5074022;28;20048;-62
2023/03/12 09:59:58;;;;;;;31.52;18.08;;;0.80;99.90;;;;;;5074987;28;20036;-61
2023/03/12 10:02:38;;;;;;;33.05;18.65;;;0.80;99.90;;;;;;5076796;28;20696;-61
2023/03/12 10:05:10;;;;;;;37.70;18.88;;;0.80;99.90;;;;;;5076785;28;20043;-61
2023/03/12 10:07:52;;;;;;;36.13;20.05;;;0.80;99.90;;;;;;5074084;28;20090;-61
2023/03/12 10:10:42;;;;;;;36.05;19.33;;;0.80;99.90;;;;;;5076248;28;20169;-61
2023/03/12 10:13:29;;;;;;;34.00;20.40;;;0.90;99.90;;;;;;5073107;28;20047;-61
2023/03/12 10:16:25;;;;;;;37.97;19.88;;;0.90;99.90;;;;;;5076804;28;20036;-60
2023/03/12 10:19:22;;;;;;;37.17;19.98;;;1.00;99.90;;;;;;5074755;28;20129;-58
2023/03/12 10:22:00;;;;;;;42.10;20.83;;;1.10;99.90;;;;;;5071748;28;20658;-59
2023/03/12 10:24:37;;;;;;;43.40;24.42;;;1.20;99.90;;;;;;5076726;28;20083;-60
2023/03/12 10:27:15;;;;;;;42.55;25.35;;;1.30;99.90;;;;;;5073542;28;20143;-60
2023/03/12 10:29:45;;;;;;;45.53;25.85;;;1.30;99.90;;;;;;5073472;28;20068;-62
2023/03/12 10:32:16;;;;;;;42.88;26.27;;;1.40;99.90;;;;;;5074584;28;20043;-63
2023/03/12 10:34:52;;;;;;;44.92;26.30;;;1.40;99.90;;;;;;5070445;28;20093;-60
2023/03/12 10:37:27;;;;;;;42.55;26.80;;;1.40;99.90;;;;;;5071399;28;20682;-61
2023/03/12 10:39:59;;;;;;;43.08;26.52;;;1.50;99.90;;;;;;5075601;28;20040;-61
2023/03/12 10:42:27;;;;;;;48.17;27.25;;;1.50;99.90;;;;;;5073354;28;20817;-60
2023/03/12 10:44:58;;;;;;;47.80;27.20;;;1.50;99.90;;;;;;5073314;28;20043;-61
2023/03/12 10:47:36;;;;;;;47.05;27.27;;;1.60;99.90;;;;;;5076250;28;20099;-61
2023/03/12 10:50:12;;;;;;;45.55;26.95;;;1.60;99.90;;;;;;5079890;28;20088;-62
2023/03/12 10:52:38;;;;;;;44.55;26.00;;;1.60;99.90;;;;;;5079282;28;20070;-61
2023/03/12 10:55:25;;;;;;;49.95;28.13;;;1.70;99.90;;;;;;5079935;28;20653;-60
2023/03/12 10:57:52;;;;;;;45.10;26.70;;;1.70;99.90;;;;;;5078866;28;20052;-61
2023/03/12 11:00:27;;;;;;;46.58;27.08;;;1.80;99.90;;;;;;5078758;28;20446;-62
2023/03/12 11:02:59;;;;;;;44.65;27.13;;;1.80;99.90;;;;;;5078840;28;20172;-62
2023/03/12 11:05:44;;;;;;;44.08;26.48;;;1.90;99.90;;;;;;5079508;28;20036;-61
2023/03/12 11:08:25;;;;;;;44.65;26.75;;;1.90;99.90;;;;;;5079441;28;20036;-62
2023/03/12 11:10:52;;;;;;;42.97;25.48;;;2.00;99.90;;;;;;5080893;28;20169;-63
2023/03/12 11:13:25;;;;;;;45.20;26.33;;;1.90;99.90;;;;;;5077260;28;20043;-59
2023/03/12 11:15:52;;;;;;;42.67;25.48;;;2.00;99.90;;;;;;5079841;28;20543;-62
2023/03/12 11:18:21;;;;;;;40.33;25.40;;;2.00;99.90;;;;;;5076091;28;20103;-62
2023/03/12 11:21:09;;;;;;;42.80;26.42;;;2.10;99.90;;;;;;5078999;28;20032;-61
2023/03/12 11:23:38;;;;;;;46.15;26.55;;;2.10;99.90;;;;;;5078209;28;20032;-62
2023/03/12 11:26:16;;;;;;;39.63;25.00;;;2.10;99.90;;;;;;5060219;28;20053;-62
2023/03/12 11:28:50;;;;;;;45.53;25.85;;;2.10;99.90;;;;;;5078001;28;20097;-60
2023/03/12 11:31:37;;;;;;;47.33;24.77;;;2.20;99.90;;;;;;5082164;28;20090;-61
2023/03/12 11:34:07;;;;;;;43.63;26.20;;;2.20;99.90;;;;;;5078119;28;20069;-60
2023/03/12 11:36:58;;;;;;;46.42;26.60;;;2.20;99.90;;;;;;5078906;28;20044;-61
2023/03/12 11:39:44;;;;;;;45.03;25.90;;;2.30;99.90;;;;;;5078600;28;20077;-61
2023/03/12 11:42:25;;;;;;;52.03;26.75;;;2.40;99.90;;;;;;5081767;28;20068;-60
2023/03/12 11:45:00;;;;;;;45.25;24.48;;;2.40;99.90;;;;;;5077590;28;20036;-60
2023/03/12 11:47:33;;;;;;;47.42;25.65;;;2.50;99.90;;;;;;5085165;28;20038;-60
2023/03/12 11:50:20;;;;;;;42.65;25.35;;;2.50;99.90;;;;;;5081815;28;20040;-63
2023/03/12 11:53:03;;;;;;;44.53;25.35;;;2.60;99.90;;;;;;5072349;28;20102;-60
2023/03/12 11:55:42;;;;;;;43.22;23.80;;;2.80;99.90;;;;;;5078775;28;20039;-60
2023/03/12 11:58:28;;;;;;;42.63;24.52;;;2.80;99.90;;;;;;5080025;28;20085;-61
2023/03/12 12:01:06;;;;;;;43.55;24.33;;;2.90;99.90;;;;;;5083578;28;20043;-61
2023/03/12 12:04:08;;;;;;;40.58;22.48;;;3.00;99.90;;;;;;5085177;28;20048;-59
2023/03/12 12:06:42;;;;;;;40.60;22.13;;;3.00;99.90;;;;;;5068050;28;20655;-60
2023/03/12 12:09:40;;;;;;;38.47;22.23;;;3.10;99.90;;;;;;5083176;28;20116;-60
2023/03/12 12:12:12;;;;;;;41.30;23.13;;;3.20;99.90;;;;;;5072055;28;20056;-61
2023/03/12 12:14:50;;;;;;;35.95;21.05;;;3.30;99.90;;;;;;5066141;28;20040;-60
2023/03/12 12:17:41;;;;;;;33.85;19.98;;;3.40;99.90;;;;;;5070203;28;20048;-60
2023/03/12 12:20:25;;;;;;;34.35;19.90;;;3.40;99.90;;;;;;5064167;28;20041;-61
2023/03/12 12:22:59;;;;;;;32.60;18.35;;;3.50;99.90;;;;;;5068481;28;20031;-60
2023/03/12 12:25:31;;;;;;;;;;;3.60;99.90;;;;;;5073043;28;20072;-60
2023/03/12 12:28:02;;;;;;;35.95;18.98;;;3.60;99.90;;;;;;5074560;28;19951;-60
2023/03/12 12:30:58;;;;;;;33.00;19.30;;;3.70;99.90;;;;;;5065270;28;20461;-60
2023/03/12 12:33:32;;;;;;;33.13;18.55;;;3.80;99.90;;;;;;5056713;28;20079;-60
2023/03/12 12:35:59;;;;;;;33.70;18.67;;;3.90;99.90;;;;;;5062564;28;20800;-61
2023/03/12 12:38:45;;;;;;;28.88;18.20;;;4.00;99.90;;;;;;5065941;28;21116;-60
2023/03/12 12:41:16;;;;;;;34.88;18.98;;;4.10;99.90;;;;;;5065371;28;20044;-60
2023/03/12 12:43:47;;;;;;;34.58;18.27;;;4.30;99.90;;;;;;5048753;28;20047;-61
2023/03/12 12:46:18;;;;;;;33.63;17.92;;;4.30;99.90;;;;;;5067543;28;20044;-60
2023/03/12 12:48:48;;;;;;;31.00;18.05;;;4.40;99.90;;;;;;5067064;28;20051;-60